Gwinner, ND

10:02 AM CST on December 27, 2014 (GMT -0600)
Stern | Change Station
CLOSE
Current Station
Airport
Location: Wahpeton,
Elevation: 968 ft
Nearby Weather Stations

Elev 968 ft 46.24 °N, 96.61 °W | Updated 7 minutes ago

Clear
Clear
10 °F
Feels Like 1 °F
N
6
Wind Variable Wind from SW

Today
High -- | Low -- °F
--% Chance of Precip.
Yesterday
High -- | Low -- °F
Precip. -- in
8:13 AM 4:51 PM
Waxing Crescent, 37% visible
Pressure 30.14 in
Visibility 10.0 miles
Clouds Clear
Windchill 1 °F
Dew Point 5 °F
Humidity 79%
Rainfall 0.00 in
Snow Depth Not available.
UV 1 out of 12
Pollen .10 out of 12
Air Quality Not available.
Flu Activity Not available.
METAR KBWP 271555Z AUTO 23005KT 10SM CLR M12/M15 A3014 RMK AO1

More Conditions Fewer Conditions

Pressure 30.14 in
Visibility 10.0 miles
Clouds Clear
Windchill 1 °F
Dew Point 5 °F
Humidity 79%
Rainfall 0.00 in
Snow Depth Not available.
UV 1 out of 12
Pollen .10 out of 12
Air Quality Not available.
Flu Activity Not available.
METAR KBWP 271555Z AUTO 23005KT 10SM CLR M12/M15 A3014 RMK AO1

More Conditions Fewer Conditions

10-Day Weather Forecast

Almanac

Astronomy

Dec. 27, 2014 Rise Set
Actual Time
Civil Twilight
Nautical Twilight
Astronomical Twilight
Moon
Length of Visible Light
Length of Day
Tomorrow will be .
, % of the Moon is Illuminated

Today's Extremes

State Highs State Lows

Community

WunderPhotos

Upload Photos

1,780,942 photos uploaded!

WunderBlogs® & News

Nearby

Air Quality

  Air Quality AQ Index Pollutant
Not available.

Snow Depth

Station Depth Elevation

Earthquake Activity

City Distance Mag. Time & Date
Minimum magnitude displayed is 2.5.

Coastal Water Temperatures

Place Temperature

Nearby Weather Stations